Terminal Aerodrome Forecast
Issued by NWS

Home | Current Version | Previous Version | Text Only | Print | Product List | Glossary On
Versions: 1 2 3 4 5 6 7 8 9 10 11 12 13 14 15 16 17 18 19
935
FTUS44 KLZK 282342
TAFLLQ
TAF
KLLQ 282342Z 2900/2924 VRB05KT P6SM SKC
     FM291000 00000KT 4SM BR BKN025
     FM291600 28005KT P6SM BKN040=

USA.gov is the U.S. government's official web portal to all federal, state and local government web resources and services.